Time;durP1;ratioP1;P1;durP2;ratioP2;P2;SDS_P1;SDS_P2;PMS_P1;PMS_P2;Temp;Humidity;BMP_temperature;BMP_pressure;BME280_temperature;BME280_humidity;BME280_pressure;Samples;Min_cycle;Max_cycle;Signal;HPM_P1;HPM_P2
2021/12/08 00:00:44;;;;;;;1.25;0.60;;;16.40;64.80;;;;;;5052425;28;20049;-29
2021/12/08 00:03:10;;;;;;;1.02;0.50;;;16.40;64.60;;;;;;5038065;28;20478;-28
2021/12/08 00:05:37;;;;;;;0.60;0.50;;;16.40;64.50;;;;;;5036967;28;20037;-28
2021/12/08 00:08:04;;;;;;;1.85;0.68;;;16.40;64.60;;;;;;5037769;28;20060;-21
2021/12/08 00:13:07;;;;;;;0.73;0.60;;;16.50;64.60;;;;;;5037875;28;20144;-26
2021/12/08 00:15:37;;;;;;;0.43;0.40;;;16.50;64.70;;;;;;5038485;28;20041;-27
2021/12/08 00:18:15;;;;;;;0.45;0.40;;;16.50;64.80;;;;;;5037851;28;20050;-26
2021/12/08 00:20:41;;;;;;;1.45;0.70;;;16.40;64.90;;;;;;5037582;28;20048;-26
2021/12/08 00:23:07;;;;;;;0.95;0.60;;;16.40;65.10;;;;;;5038078;28;20049;-26
2021/12/08 00:25:33;;;;;;;0.40;0.40;;;16.40;65.10;;;;;;5038399;28;20821;-30
2021/12/08 00:27:58;;;;;;;1.58;0.63;;;16.40;64.90;;;;;;5037615;28;20037;-23
2021/12/08 00:30:24;;;;;;;0.85;0.43;;;16.40;65.00;;;;;;5038320;28;20063;-23
2021/12/08 00:32:54;;;;;;;1.25;0.57;;;16.40;64.90;;;;;;5037355;28;20049;-26
2021/12/08 00:35:20;;;;;;;1.25;0.40;;;16.40;64.90;;;;;;5037937;28;20511;-21
2021/12/08 00:37:46;;;;;;;0.70;0.50;;;16.40;65.00;;;;;;5037356;28;20076;-23
2021/12/08 00:40:13;;;;;;;0.57;0.52;;;16.40;65.00;;;;;;5045667;28;20130;-26
2021/12/08 00:42:38;;;;;;;0.52;0.32;;;16.40;65.00;;;;;;5058034;28;20127;-26
2021/12/08 00:45:05;;;;;;;0.60;0.60;;;16.40;64.90;;;;;;5057447;28;20075;-22
2021/12/08 00:47:30;;;;;;;1.00;0.50;;;16.40;64.90;;;;;;5057592;28;20048;-28
2021/12/08 00:49:56;;;;;;;0.50;0.32;;;16.40;64.80;;;;;;5057030;28;20047;-25
2021/12/08 00:52:24;;;;;;;1.73;0.77;;;16.40;64.80;;;;;;5057700;28;20120;-26
2021/12/08 00:54:50;;;;;;;0.40;0.40;;;16.40;64.80;;;;;;5057142;28;20033;-26
2021/12/08 00:57:16;;;;;;;0.82;0.40;;;16.40;64.70;;;;;;5057650;28;20059;-24
2021/12/08 00:59:41;;;;;;;1.45;0.63;;;16.40;64.70;;;;;;5057580;28;20029;-25
2021/12/08 01:02:07;;;;;;;0.65;0.30;;;16.40;64.80;;;;;;5057039;28;20045;-26
2021/12/08 01:04:33;;;;;;;0.40;0.40;;;16.40;64.70;;;;;;5057427;28;20065;-24
2021/12/08 01:06:59;;;;;;;0.50;0.50;;;16.40;64.70;;;;;;5056711;28;20056;-28
2021/12/08 01:09:25;;;;;;;1.05;0.40;;;16.40;64.70;;;;;;5056141;28;20457;-24
2021/12/08 01:11:51;;;;;;;2.42;0.57;;;16.30;64.60;;;;;;5056812;28;20087;-25
2021/12/08 01:14:16;;;;;;;0.55;0.40;;;16.30;64.60;;;;;;5057335;28;20037;-27
2021/12/08 01:16:42;;;;;;;1.38;0.30;;;16.30;64.70;;;;;;5056653;28;20040;-23
2021/12/08 01:19:08;;;;;;;0.68;0.30;;;16.40;64.60;;;;;;5057144;28;20044;-28
2021/12/08 01:21:34;;;;;;;0.30;0.30;;;16.30;64.50;;;;;;5056945;28;20556;-32
2021/12/08 01:23:59;;;;;;;0.65;0.40;;;16.40;64.50;;;;;;5030042;28;20042;-24
2021/12/08 01:26:26;;;;;;;2.42;0.40;;;16.30;64.50;;;;;;5018442;28;20471;-26
2021/12/08 01:28:55;;;;;;;1.55;0.35;;;16.30;64.50;;;;;;5036412;28;20037;-30
2021/12/08 01:31:21;;;;;;;0.60;0.40;;;16.30;64.50;;;;;;5036992;28;20041;-27
2021/12/08 01:33:47;;;;;;;1.75;0.40;;;16.30;64.50;;;;;;5035216;28;20048;-25
2021/12/08 01:36:13;;;;;;;0.70;0.40;;;16.30;64.40;;;;;;5036500;28;20080;-30
2021/12/08 01:38:38;;;;;;;1.75;0.30;;;16.30;64.40;;;;;;5036839;28;20041;-26
2021/12/08 01:41:04;;;;;;;0.50;0.35;;;16.30;64.40;;;;;;5051146;28;20057;-28
2021/12/08 01:43:40;;;;;;;0.60;0.30;;;16.30;64.50;;;;;;5056851;28;20040;-30
2021/12/08 01:46:08;;;;;;;0.50;0.32;;;16.30;64.50;;;;;;5056191;28;20409;-26
2021/12/08 01:48:38;;;;;;;0.45;0.45;;;16.30;64.50;;;;;;5056599;28;20140;-23
2021/12/08 01:51:10;;;;;;;2.90;0.40;;;16.30;64.50;;;;;;5055952;28;20120;-29
2021/12/08 01:53:37;;;;;;;1.73;0.40;;;16.30;64.40;;;;;;5056751;28;20551;-28
2021/12/08 01:56:03;;;;;;;0.82;0.40;;;16.30;65.20;;;;;;5055877;28;20132;-25
2021/12/08 01:58:29;;;;;;;0.50;0.40;;;16.30;64.40;;;;;;5056571;28;20114;-26
2021/12/08 02:00:58;;;;;;;0.45;0.30;;;16.30;64.30;;;;;;5055721;28;20072;-27
2021/12/08 02:03:23;;;;;;;0.63;0.20;;;16.30;64.30;;;;;;5056408;28;20045;-30
2021/12/08 02:05:49;;;;;;;1.00;0.30;;;16.30;64.40;;;;;;5055655;28;20516;-25
2021/12/08 02:08:15;;;;;;;0.43;0.40;;;16.20;64.40;;;;;;5056084;28;20398;-27
2021/12/08 02:10:41;;;;;;;0.40;0.30;;;16.30;64.30;;;;;;5056431;28;20537;-24
2021/12/08 02:13:07;;;;;;;0.68;0.38;;;16.30;64.30;;;;;;5055623;28;20041;-28
2021/12/08 02:15:34;;;;;;;0.30;0.22;;;16.20;64.30;;;;;;5056274;28;20069;-21
2021/12/08 02:18:00;;;;;;;0.30;0.25;;;16.30;64.30;;;;;;5054155;28;20045;-28
2021/12/08 02:20:27;;;;;;;0.68;0.50;;;16.20;64.30;;;;;;5055685;28;20044;-25
2021/12/08 02:22:52;;;;;;;0.70;0.35;;;16.20;64.30;;;;;;5055002;28;20045;-22
2021/12/08 02:25:20;;;;;;;1.35;0.30;;;16.30;65.10;;;;;;5056075;28;20048;-24
2021/12/08 02:27:46;;;;;;;1.55;0.40;;;16.20;64.40;;;;;;5046468;28;20044;-23
2021/12/08 02:31:00;;;;;;;0.57;0.25;;;16.20;64.40;;;;;;5035415;28;20046;-21
2021/12/08 02:49:33;;;;;;;0.30;0.20;;;16.20;64.20;;;;;;5017004;28;20045;-26
2021/12/08 02:51:59;;;;;;;0.43;0.35;;;16.20;64.20;;;;;;5026755;28;20106;-26
2021/12/08 02:54:24;;;;;;;0.40;0.35;;;16.20;64.30;;;;;;5026645;28;20508;-27
2021/12/08 02:56:53;;;;;;;0.10;0.10;;;16.20;64.20;;;;;;5015004;28;20054;-26
2021/12/08 02:59:19;;;;;;;0.20;0.20;;;16.20;64.30;;;;;;5015663;28;20406;-24
2021/12/08 03:01:44;;;;;;;0.20;0.20;;;16.20;64.30;;;;;;5015670;28;20038;-24
2021/12/08 03:04:10;;;;;;;0.20;0.20;;;16.20;64.30;;;;;;5014840;28;20049;-27
2021/12/08 03:06:36;;;;;;;0.50;0.30;;;16.20;64.20;;;;;;5015412;28;20048;-21
2021/12/08 03:09:03;;;;;;;0.43;0.25;;;16.10;64.20;;;;;;5014771;28;20096;-24
2021/12/08 03:11:29;;;;;;;1.23;0.30;;;16.20;64.20;;;;;;5015597;28;20038;-25
2021/12/08 03:14:05;;;;;;;0.57;0.43;;;16.10;64.20;;;;;;5014844;28;20096;-27
2021/12/08 03:16:31;;;;;;;0.28;0.20;;;16.20;64.30;;;;;;5015479;28;20038;-23
2021/12/08 03:18:56;;;;;;;0.30;0.30;;;16.10;64.20;;;;;;5014775;28;20048;-22
2021/12/08 03:21:28;;;;;;;0.35;0.28;;;16.10;64.20;;;;;;5014992;28;20046;-22
2021/12/08 03:24:08;;;;;;;0.32;0.28;;;16.10;64.20;;;;;;5014663;28;20056;-21
2021/12/08 03:26:35;;;;;;;0.43;0.30;;;16.10;64.20;;;;;;5015281;28;20050;-29
2021/12/08 03:29:07;;;;;;;0.20;0.20;;;16.10;64.10;;;;;;5042375;28;20051;-27
2021/12/08 03:31:41;;;;;;;0.28;0.20;;;16.10;64.20;;;;;;5035130;28;20069;-26
2021/12/08 03:34:06;;;;;;;0.40;0.28;;;16.10;64.20;;;;;;5038061;28;20080;-30
2021/12/08 03:36:32;;;;;;;0.35;0.30;;;16.10;64.20;;;;;;5038950;28;20046;-29
2021/12/08 03:38:57;;;;;;;0.20;0.20;;;16.10;64.10;;;;;;5038334;28;20042;-31
2021/12/08 03:41:23;;;;;;;0.20;0.20;;;16.10;64.10;;;;;;5038969;28;20056;-27
2021/12/08 03:43:49;;;;;;;0.95;0.30;;;16.10;64.20;;;;;;5039160;28;20099;-27
2021/12/08 03:46:16;;;;;;;0.25;0.20;;;16.10;64.20;;;;;;5038365;28;20053;-24
2021/12/08 03:48:48;;;;;;;0.20;0.15;;;16.10;64.20;;;;;;5038899;28;20053;-25
2021/12/08 03:51:14;;;;;;;1.52;0.30;;;16.10;64.20;;;;;;5038022;28;20152;-27
2021/12/08 03:53:41;;;;;;;0.15;0.10;;;16.00;64.10;;;;;;5038964;28;20108;-25
2021/12/08 03:56:06;;;;;;;0.47;0.32;;;16.10;64.20;;;;;;5038331;28;20128;-22
2021/12/08 03:58:32;;;;;;;1.45;0.28;;;16.10;64.10;;;;;;5038915;28;20071;-25
2021/12/08 04:00:58;;;;;;;0.20;0.20;;;16.10;64.10;;;;;;5034137;28;20050;-26
2021/12/08 04:03:26;;;;;;;0.20;0.20;;;16.10;64.00;;;;;;5024853;28;20506;-27
2021/12/08 04:08:20;;;;;;;0.40;0.30;;;16.10;63.90;;;;;;5037942;28;20099;-24
2021/12/08 04:10:49;;;;;;;0.60;0.30;;;16.00;64.00;;;;;;5038553;28;20053;-23
2021/12/08 04:13:16;;;;;;;0.20;0.20;;;16.00;63.90;;;;;;5037781;28;20037;-25
2021/12/08 04:15:41;;;;;;;0.40;0.20;;;16.10;64.10;;;;;;5038465;28;20429;-24
2021/12/08 04:18:07;;;;;;;0.20;0.20;;;16.00;64.00;;;;;;5037863;28;20041;-25
2021/12/08 04:20:39;;;;;;;0.15;0.15;;;16.00;64.00;;;;;;5038235;28;20496;-26
2021/12/08 04:23:07;;;;;;;0.10;0.10;;;16.00;64.00;;;;;;5037328;28;20500;-26
2021/12/08 04:25:34;;;;;;;0.40;0.17;;;16.00;64.00;;;;;;5037997;28;20045;-29
2021/12/08 04:28:02;;;;;;;0.22;0.13;;;16.00;64.00;;;;;;5045472;28;20135;-23
2021/12/08 04:30:34;;;;;;;0.45;0.10;;;16.00;63.90;;;;;;5038103;28;20060;-22
2021/12/08 04:33:00;;;;;;;0.30;0.20;;;16.00;63.90;;;;;;5037459;28;20040;-28
2021/12/08 04:35:26;;;;;;;0.10;0.10;;;16.00;64.00;;;;;;5038008;28;20128;-23
2021/12/08 04:37:54;;;;;;;0.20;0.10;;;16.00;64.00;;;;;;5037915;28;20038;-22
2021/12/08 04:40:42;;;;;;;0.20;0.20;;;16.00;64.00;;;;;;5037222;28;20048;-28
2021/12/08 04:43:19;;;;;;;0.20;0.20;;;16.00;64.00;;;;;;5037308;28;20042;-24
2021/12/08 04:46:03;;;;;;;0.10;0.10;;;16.00;63.90;;;;;;5037935;28;20857;-24
2021/12/08 05:09:56;;;;;;;0.20;0.10;;;16.00;64.00;;;;;;5038668;28;20032;-26
2021/12/08 05:12:27;;;;;;;0.10;0.10;;;15.90;64.00;;;;;;5042878;28;20386;-26
2021/12/08 05:15:01;;;;;;;0.40;0.17;;;16.00;64.00;;;;;;5033689;28;20040;-29
2021/12/08 05:17:33;;;;;;;0.10;0.10;;;16.00;64.00;;;;;;5035019;28;20125;-24
2021/12/08 05:20:01;;;;;;;0.10;0.10;;;15.90;63.90;;;;;;5037755;28;20044;-25
2021/12/08 05:22:30;;;;;;;0.17;0.10;;;16.00;64.00;;;;;;5026164;28;20060;-22
2021/12/08 05:24:57;;;;;;;0.32;0.28;;;15.90;63.80;;;;;;5032584;28;20043;-22
2021/12/08 05:27:38;;;;;;;0.20;0.20;;;16.00;64.00;;;;;;5031882;28;20120;-24
2021/12/08 05:30:11;;;;;;;0.20;0.20;;;16.00;64.00;;;;;;5040684;28;20045;-26
2021/12/08 05:32:36;;;;;;;0.25;0.10;;;16.00;63.90;;;;;;5015946;28;20044;-24
2021/12/08 05:35:04;;;;;;;0.40;0.20;;;16.00;63.90;;;;;;5032127;28;20128;-25
2021/12/08 05:37:29;;;;;;;0.22;0.20;;;15.90;63.90;;;;;;5040353;28;20063;-24
2021/12/08 05:39:55;;;;;;;0.20;0.05;;;15.90;63.80;;;;;;5041005;28;20494;-22
2021/12/08 05:42:27;;;;;;;0.10;0.10;;;15.90;63.80;;;;;;5049437;28;20037;-23
2021/12/08 05:44:53;;;;;;;0.45;0.20;;;15.90;63.80;;;;;;5029552;28;20103;-21
2021/12/08 05:47:22;;;;;;;0.10;0.10;;;15.90;63.80;;;;;;5028936;28;20038;-23
2021/12/08 05:49:48;;;;;;;0.40;0.10;;;15.90;63.80;;;;;;5037414;28;20064;-24
2021/12/08 05:52:14;;;;;;;0.20;0.10;;;15.90;63.80;;;;;;5039358;28;20148;-25
2021/12/08 05:54:42;;;;;;;0.20;0.10;;;15.90;63.80;;;;;;5043854;28;20083;-21
2021/12/08 05:57:17;;;;;;;0.10;0.10;;;15.90;63.70;;;;;;5036619;28;20052;-26
2021/12/08 05:59:43;;;;;;;0.75;0.10;;;16.00;63.70;;;;;;5034593;28;20125;-30
2021/12/08 06:02:11;;;;;;;0.10;0.10;;;16.00;63.70;;;;;;5035234;28;20505;-29
2021/12/08 06:04:37;;;;;;;0.13;0.10;;;15.90;63.80;;;;;;5027866;28;20052;-26
2021/12/08 06:07:03;;;;;;;0.20;0.20;;;15.90;63.80;;;;;;5015631;28;20522;-26
2021/12/08 06:09:29;;;;;;;0.43;0.20;;;16.00;63.70;;;;;;5016547;28;20220;-24
2021/12/08 06:11:55;;;;;;;1.35;0.10;;;16.00;63.70;;;;;;5016492;28;20129;-22
2021/12/08 06:14:24;;;;;;;0.73;0.20;;;15.90;63.80;;;;;;5015755;28;20111;-25
2021/12/08 06:16:50;;;;;;;0.10;0.10;;;16.00;63.90;;;;;;5034369;28;20041;-27
2021/12/08 06:19:16;;;;;;;0.45;0.20;;;15.90;63.90;;;;;;5033345;28;20042;-22
2021/12/08 06:21:42;;;;;;;0.30;0.20;;;16.00;63.90;;;;;;5033986;28;20136;-26
2021/12/08 06:24:09;;;;;;;0.10;0.10;;;15.90;63.90;;;;;;5035154;28;20068;-23
2021/12/08 06:26:34;;;;;;;0.30;0.10;;;15.90;64.00;;;;;;5054953;28;20045;-27
2021/12/08 06:29:01;;;;;;;0.10;0.10;;;15.90;64.20;;;;;;5053999;28;20048;-27
2021/12/08 06:31:27;;;;;;;0.55;0.10;;;15.90;64.10;;;;;;5054863;28;20820;-24
2021/12/08 06:33:53;;;;;;;0.17;0.10;;;16.00;64.00;;;;;;5054279;28;20594;-26
2021/12/08 06:36:27;;;;;;;0.52;0.20;;;16.00;64.00;;;;;;5053568;28;20134;-24
2021/12/08 06:38:53;;;;;;;;;;;15.90;64.10;;;;;;5037408;28;20470;-20
2021/12/08 06:41:33;;;;;;;0.17;0.10;;;15.90;64.00;;;;;;5055111;28;21844;-25
2021/12/08 06:44:11;;;;;;;0.10;0.10;;;15.90;64.20;;;;;;5051378;28;20516;-24
2021/12/08 06:46:38;;;;;;;1.70;0.20;;;16.00;64.50;;;;;;5034116;28;20053;-25
2021/12/08 06:49:04;;;;;;;0.20;0.10;;;16.00;64.30;;;;;;5043311;28;20071;-25
2021/12/08 06:51:33;;;;;;;0.03;0.03;;;16.00;64.00;;;;;;5014858;28;20156;-26
2021/12/08 06:54:02;;;;;;;1.65;0.20;;;15.90;64.20;;;;;;5015616;28;20044;-26
2021/12/08 06:56:31;;;;;;;0.13;0.03;;;15.90;64.10;;;;;;5014834;28;20042;-23
2021/12/08 06:59:00;;;;;;;0.50;0.20;;;15.90;64.20;;;;;;5014256;28;20076;-21
2021/12/08 07:06:47;;;;;;;0.20;0.10;;;15.90;64.20;;;;;;5041962;28;20044;-28
2021/12/08 07:09:20;;;;;;;1.65;0.17;;;15.90;64.10;;;;;;5034457;28;20068;-26
2021/12/08 07:11:46;;;;;;;0.10;0.10;;;15.90;64.00;;;;;;5035159;28;20053;-30
2021/12/08 07:14:11;;;;;;;2.08;0.20;;;15.90;63.90;;;;;;5022726;28;20049;-27
2021/12/08 07:16:40;;;;;;;0.13;0.08;;;15.90;63.80;;;;;;5027875;28;20132;-29
2021/12/08 07:19:33;;;;;;;0.22;0.20;;;15.90;64.10;;;;;;5034345;28;20461;-27
2021/12/08 07:21:59;;;;;;;0.45;0.20;;;15.90;64.00;;;;;;5034907;28;20033;-28
2021/12/08 07:24:31;;;;;;;0.35;0.10;;;15.90;64.10;;;;;;5034374;28;20041;-28
2021/12/08 07:26:59;;;;;;;0.30;0.10;;;15.90;64.10;;;;;;5040015;28;20083;-26
2021/12/08 07:29:28;;;;;;;0.10;0.10;;;15.90;63.80;;;;;;5042459;28;20068;-21
2021/12/08 07:32:00;;;;;;;0.20;0.13;;;15.90;63.80;;;;;;5034888;28;20051;-26
2021/12/08 07:34:26;;;;;;;0.10;0.10;;;15.90;63.80;;;;;;5034133;28;20053;-23
2021/12/08 07:36:55;;;;;;;0.10;0.10;;;15.90;63.90;;;;;;5033446;28;20046;-29
2021/12/08 07:39:26;;;;;;;0.10;0.10;;;15.90;63.80;;;;;;5031488;28;20296;-25
2021/12/08 07:41:56;;;;;;;0.00;0.00;;;15.90;63.90;;;;;;5036366;28;20037;-26
2021/12/08 07:44:23;;;;;;;0.17;0.08;;;15.90;63.90;;;;;;5040218;28;20037;-23
2021/12/08 07:46:59;;;;;;;0.20;0.10;;;15.90;63.80;;;;;;5046170;28;20486;-22
2021/12/08 07:49:37;;;;;;;0.25;0.10;;;15.80;63.80;;;;;;5034171;28;20388;-23
2021/12/08 07:52:11;;;;;;;0.20;0.10;;;15.90;63.80;;;;;;5034560;28;20064;-25
2021/12/08 07:54:36;;;;;;;;;;;15.90;63.80;;;;;;5034567;28;20045;-28
2021/12/08 07:57:06;;;;;;;0.15;0.10;;;15.90;63.70;;;;;;5049751;28;19913;-23
2021/12/08 07:59:32;;;;;;;0.20;0.20;;;15.90;63.70;;;;;;5041612;28;20056;-24
2021/12/08 08:01:59;;;;;;;0.20;0.20;;;15.90;63.70;;;;;;5031711;28;20101;-24
2021/12/08 08:04:25;;;;;;;0.40;0.10;;;15.80;63.60;;;;;;5015209;28;20053;-26
2021/12/08 08:06:54;;;;;;;0.10;0.10;;;15.80;63.50;;;;;;5014519;28;20076;-24
2021/12/08 08:09:27;;;;;;;0.20;0.20;;;15.80;63.50;;;;;;5014082;28;20042;-25
2021/12/08 08:11:56;;;;;;;0.82;0.10;;;15.90;63.60;;;;;;5014789;28;20034;-25
2021/12/08 08:14:24;;;;;;;0.20;0.10;;;15.80;63.50;;;;;;5014051;28;20467;-26
2021/12/08 08:16:54;;;;;;;0.50;0.00;;;15.80;63.50;;;;;;5018523;28;20529;-21
2021/12/08 08:19:26;;;;;;;0.20;0.10;;;15.80;63.50;;;;;;5044464;28;20044;-23
2021/12/08 08:21:52;;;;;;;0.20;0.20;;;15.80;63.40;;;;;;5044380;28;20497;-29
2021/12/08 08:24:18;;;;;;;0.10;0.10;;;15.80;63.50;;;;;;5040978;28;20041;-26
2021/12/08 08:26:44;;;;;;;0.40;0.10;;;15.80;63.30;;;;;;5044275;28;20046;-25
2021/12/08 08:29:09;;;;;;;0.10;0.10;;;15.90;63.40;;;;;;5046062;28;20049;-32
2021/12/08 08:31:40;;;;;;;0.20;0.10;;;15.80;63.30;;;;;;5038068;28;20104;-29
2021/12/08 08:34:07;;;;;;;0.10;0.10;;;15.80;63.30;;;;;;5045851;28;20045;-26
2021/12/08 08:36:43;;;;;;;0.10;0.10;;;15.80;63.30;;;;;;5036995;28;20465;-26
2021/12/08 08:39:11;;;;;;;0.10;0.00;;;15.80;63.20;;;;;;5037297;28;20053;-26
2021/12/08 08:41:48;;;;;;;0.13;0.10;;;15.90;63.30;;;;;;5057367;28;20125;-24
2021/12/08 08:44:49;;;;;;;0.20;0.10;;;15.80;63.20;;;;;;5057026;28;20041;-25
2021/12/08 08:47:27;;;;;;;0.10;0.10;;;15.80;63.20;;;;;;5043248;28;20041;-21
2021/12/08 08:49:53;;;;;;;0.10;0.05;;;15.80;63.30;;;;;;5057371;28;20139;-24
2021/12/08 08:52:32;;;;;;;0.10;0.10;;;15.80;63.20;;;;;;5056696;28;20121;-32
2021/12/08 08:55:00;;;;;;;0.30;0.20;;;15.80;63.20;;;;;;5057527;28;20045;-25
2021/12/08 08:57:33;;;;;;;0.10;0.10;;;15.80;63.10;;;;;;5056595;28;20072;-24
2021/12/08 09:00:03;;;;;;;0.20;0.17;;;15.90;63.10;;;;;;5057400;28;20130;-30
2021/12/08 09:02:34;;;;;;;0.22;0.10;;;15.80;63.10;;;;;;5056717;28;20037;-29
2021/12/08 09:05:02;;;;;;;0.10;0.10;;;15.80;63.20;;;;;;5057207;28;20041;-27
2021/12/08 09:07:31;;;;;;;0.10;0.05;;;15.80;63.10;;;;;;5056146;28;20452;-26
2021/12/08 09:09:57;;;;;;;0.17;0.10;;;15.80;63.10;;;;;;5057275;28;20044;-25
2021/12/08 09:12:38;;;;;;;0.10;0.10;;;15.80;63.10;;;;;;5056425;28;20033;-24
2021/12/08 09:15:16;;;;;;;0.10;0.00;;;15.80;63.10;;;;;;5057168;28;20070;-24
2021/12/08 09:17:48;;;;;;;0.75;0.10;;;15.80;63.10;;;;;;5056156;28;20094;-28
2021/12/08 09:20:27;;;;;;;3.03;0.32;;;15.80;63.00;;;;;;5056189;28;20091;-26
2021/12/08 09:23:00;;;;;;;0.10;0.10;;;15.90;63.00;;;;;;5056968;28;20082;-25
2021/12/08 09:25:40;;;;;;;0.10;0.10;;;15.90;63.00;;;;;;5056295;28;20041;-27
2021/12/08 09:28:13;;;;;;;0.10;0.10;;;15.90;62.90;;;;;;5044578;28;20037;-25
2021/12/08 09:30:55;;;;;;;0.22;0.08;;;15.80;62.80;;;;;;5035684;28;20498;-25
2021/12/08 09:33:24;;;;;;;0.17;0.13;;;15.80;62.80;;;;;;5036179;28;20059;-29
2021/12/08 09:35:56;;;;;;;0.10;0.10;;;15.90;63.00;;;;;;5036549;28;20052;-31
2021/12/08 09:38:26;;;;;;;0.13;0.10;;;15.80;62.80;;;;;;5036123;28;20038;-24
2021/12/08 09:41:01;;;;;;;0.10;0.10;;;15.80;62.90;;;;;;5050158;28;20048;-26
2021/12/08 09:43:37;;;;;;;0.10;0.03;;;15.80;63.70;;;;;;5055753;28;20071;-29
2021/12/08 09:46:09;;;;;;;0.10;0.10;;;15.80;62.80;;;;;;5056526;28;20611;-28
2021/12/08 09:48:42;;;;;;;0.10;0.10;;;15.80;62.80;;;;;;5055564;28;20060;-23
2021/12/08 09:51:09;;;;;;;0.20;0.20;;;15.90;62.80;;;;;;5056146;28;20121;-32
2021/12/08 09:53:34;;;;;;;0.10;0.10;;;15.90;62.70;;;;;;5055801;28;20060;-25
2021/12/08 09:56:00;;;;;;;1.10;0.20;;;15.90;62.70;;;;;;5051808;28;20049;-27
2021/12/08 09:58:26;;;;;;;0.20;0.20;;;15.90;62.70;;;;;;5035690;28;20506;-31
2021/12/08 10:00:55;;;;;;;0.10;0.10;;;15.90;62.60;;;;;;5035031;28;20388;-30
2021/12/08 10:03:20;;;;;;;0.10;0.10;;;15.90;62.60;;;;;;5035618;28;20041;-27
2021/12/08 10:05:46;;;;;;;0.05;0.00;;;15.90;62.70;;;;;;5036172;28;20129;-25
2021/12/08 10:08:12;;;;;;;0.60;0.05;;;15.90;62.70;;;;;;5047640;28;20039;-23
2021/12/08 10:10:41;;;;;;;0.20;0.20;;;15.90;62.80;;;;;;5055735;28;20049;-28
2021/12/08 10:13:07;;;;;;;0.45;0.13;;;16.00;62.80;;;;;;5056082;28;20049;-30
2021/12/08 10:15:32;;;;;;;0.08;0.08;;;15.90;62.80;;;;;;5055365;28;20056;-23
2021/12/08 10:17:58;;;;;;;0.22;0.20;;;16.00;62.80;;;;;;5055575;28;20497;-31
2021/12/08 10:20:33;;;;;;;0.68;0.20;;;15.90;62.80;;;;;;5055039;28;20040;-28
2021/12/08 10:23:28;;;;;;;0.20;0.20;;;16.00;62.80;;;;;;5055710;28;20032;-26
2021/12/08 10:26:00;;;;;;;0.10;0.10;;;16.00;62.90;;;;;;5054091;28;20052;-25
2021/12/08 10:28:38;;;;;;;0.30;0.10;;;16.00;62.90;;;;;;5039717;28;20136;-24
2021/12/08 10:31:16;;;;;;;0.10;0.00;;;16.00;62.90;;;;;;5035885;28;20038;-24
2021/12/08 10:36:45;;;;;;;0.00;0.00;;;16.00;62.80;;;;;;5041165;28;20123;-27
2021/12/08 10:39:30;;;;;;;0.13;0.10;;;16.00;62.70;;;;;;5033495;28;20101;-27
2021/12/08 10:42:14;;;;;;;0.10;0.10;;;16.00;62.80;;;;;;5030059;28;21251;-24
2021/12/08 10:44:47;;;;;;;0.25;0.20;;;16.10;62.80;;;;;;5039662;28;20053;-25
2021/12/08 10:47:17;;;;;;;0.10;0.10;;;16.10;62.70;;;;;;5028841;28;20042;-21
2021/12/08 10:54:55;;;;;;;0.20;0.10;;;16.10;62.70;;;;;;5054535;28;20095;-23
2021/12/08 10:57:27;;;;;;;0.10;0.08;;;16.10;62.90;;;;;;5055334;28;20052;-27
2021/12/08 10:59:57;;;;;;;0.20;0.20;;;16.10;62.90;;;;;;5074810;28;20040;-24
2021/12/08 11:02:43;;;;;;;0.22;0.22;;;16.10;62.90;;;;;;5074697;28;20603;-26
2021/12/08 11:05:37;;;;;;;0.38;0.20;;;16.10;62.90;;;;;;5075163;28;20075;-28
2021/12/08 11:08:11;;;;;;;0.20;0.15;;;16.10;62.90;;;;;;5035382;28;20072;-27
2021/12/08 11:10:55;;;;;;;0.05;0.05;;;16.10;63.00;;;;;;5034304;28;20046;-26
2021/12/08 11:13:29;;;;;;;0.20;0.20;;;16.20;63.00;;;;;;5034575;28;20037;-24
2021/12/08 11:16:02;;;;;;;0.20;0.10;;;16.20;62.90;;;;;;5035285;28;20494;-29
2021/12/08 11:18:30;;;;;;;0.20;0.10;;;16.20;62.90;;;;;;5046056;28;20044;-29
2021/12/08 11:21:01;;;;;;;0.20;0.15;;;16.20;62.90;;;;;;5054418;28;20048;-25
2021/12/08 11:23:40;;;;;;;0.50;0.10;;;16.20;62.80;;;;;;5054465;28;20350;-29
2021/12/08 11:26:26;;;;;;;1.45;0.10;;;16.20;62.90;;;;;;5055058;28;20071;-27
2021/12/08 11:28:59;;;;;;;0.10;0.10;;;16.20;62.80;;;;;;5035892;28;20539;-26
2021/12/08 11:31:28;;;;;;;0.10;0.10;;;16.20;62.80;;;;;;5032920;28;20068;-21
2021/12/08 11:34:00;;;;;;;0.25;0.10;;;16.20;62.80;;;;;;5033589;28;20052;-27
2021/12/08 11:36:28;;;;;;;0.52;0.20;;;16.20;62.80;;;;;;5032763;28;20113;-28
2021/12/08 11:38:53;;;;;;;0.10;0.10;;;16.30;62.50;;;;;;5031377;28;20052;-23
2021/12/08 11:41:24;;;;;;;0.10;0.10;;;16.30;62.50;;;;;;5041035;28;20044;-21
2021/12/08 11:43:54;;;;;;;0.10;0.10;;;16.30;62.40;;;;;;5036812;28;20057;-24
2021/12/08 11:46:20;;;;;;;0.10;0.10;;;16.40;62.40;;;;;;5031811;28;20037;-25
2021/12/08 11:48:51;;;;;;;0.20;0.20;;;16.40;62.50;;;;;;5035589;28;20045;-28
2021/12/08 11:51:18;;;;;;;0.45;0.20;;;16.40;62.30;;;;;;5037012;28;20042;-26
2021/12/08 11:53:44;;;;;;;0.50;0.10;;;16.40;62.30;;;;;;5032156;28;20048;-24
2021/12/08 11:56:32;;;;;;;0.10;0.10;;;16.40;62.50;;;;;;5032374;28;20124;-26
2021/12/08 11:58:57;;;;;;;0.20;0.20;;;16.30;62.40;;;;;;5039828;28;20041;-26
2021/12/08 12:01:23;;;;;;;0.60;0.10;;;16.40;62.50;;;;;;5041297;28;20065;-26
2021/12/08 12:03:49;;;;;;;0.20;0.20;;;16.40;62.50;;;;;;5037868;28;20109;-23
2021/12/08 12:06:14;;;;;;;1.00;0.17;;;16.40;62.50;;;;;;5038163;28;20105;-24
2021/12/08 12:08:40;;;;;;;0.35;0.10;;;16.40;62.50;;;;;;5026284;28;20092;-23
2021/12/08 12:11:06;;;;;;;0.10;0.05;;;16.40;62.50;;;;;;5024292;28;20061;-28
2021/12/08 12:13:31;;;;;;;1.85;0.10;;;16.40;62.50;;;;;;5065867;28;20094;-27
2021/12/08 12:15:57;;;;;;;0.52;0.10;;;16.40;63.40;;;;;;5050210;28;20138;-27
2021/12/08 12:18:23;;;;;;;0.55;0.08;;;16.40;62.60;;;;;;5038168;28;20037;-24
2021/12/08 12:20:52;;;;;;;0.68;0.20;;;16.40;62.60;;;;;;5047995;28;20049;-22
2021/12/08 12:23:49;;;;;;;1.42;0.10;;;16.40;62.60;;;;;;5045242;28;20040;-29
2021/12/08 12:26:37;;;;;;;2.30;0.20;;;16.40;62.60;;;;;;5038465;28;20409;-21
2021/12/08 12:29:36;;;;;;;0.10;0.10;;;16.40;62.50;;;;;;5047327;28;20037;-29
2021/12/08 12:32:22;;;;;;;0.75;0.10;;;16.40;62.50;;;;;;5031601;28;20048;-29
2021/12/08 12:34:53;;;;;;;0.32;0.20;;;16.40;62.50;;;;;;5029636;28;20067;-26
2021/12/08 12:37:29;;;;;;;0.13;0.10;;;16.50;62.50;;;;;;5050338;28;20041;-25
2021/12/08 12:39:56;;;;;;;1.42;0.10;;;16.40;62.40;;;;;;5039344;28;20045;-25
2021/12/08 12:42:22;;;;;;;0.32;0.20;;;16.50;62.50;;;;;;5033289;28;20061;-27
2021/12/08 12:44:57;;;;;;;0.25;0.10;;;16.50;62.50;;;;;;5042030;28;20042;-24
2021/12/08 12:47:25;;;;;;;0.10;0.10;;;16.50;62.40;;;;;;5032988;28;20064;-23
2021/12/08 12:50:00;;;;;;;0.40;0.40;;;16.50;62.40;;;;;;5039423;28;20573;-30
2021/12/08 12:52:37;;;;;;;0.32;0.10;;;16.50;62.40;;;;;;5017326;28;20034;-29
2021/12/08 12:55:10;;;;;;;0.00;0.00;;;16.50;62.30;;;;;;5032993;28;20049;-28
2021/12/08 12:58:01;;;;;;;0.50;0.20;;;16.50;62.30;;;;;;5035481;28;20036;-28
2021/12/08 13:00:31;;;;;;;0.20;0.20;;;16.50;62.30;;;;;;5033845;28;20129;-28
2021/12/08 13:02:57;;;;;;;2.72;0.17;;;16.60;62.10;;;;;;5040708;28;20045;-22
2021/12/08 13:05:22;;;;;;;0.40;0.10;;;16.70;62.80;;;;;;5026353;28;20045;-25
2021/12/08 13:08:00;;;;;;;1.17;0.13;;;16.80;61.80;;;;;;5035859;28;20036;-27
2021/12/08 13:10:38;;;;;;;0.20;0.20;;;16.80;61.60;;;;;;5041025;28;20052;-25
2021/12/08 13:13:15;;;;;;;1.90;0.22;;;16.80;61.60;;;;;;5047526;28;20045;-27
2021/12/08 13:15:41;;;;;;;0.20;0.20;;;16.80;61.60;;;;;;5056268;28;20530;-22
2021/12/08 13:18:09;;;;;;;0.50;0.20;;;16.90;61.50;;;;;;5048248;28;20037;-22
2021/12/08 13:20:37;;;;;;;0.30;0.20;;;16.90;61.40;;;;;;5038569;28;20486;-29
2021/12/08 13:23:27;;;;;;;0.22;0.13;;;16.90;61.40;;;;;;5039764;28;20032;-28
2021/12/08 13:28:23;;;;;;;0.60;0.10;;;16.80;62.50;;;;;;5032382;28;20454;-27
2021/12/08 13:30:58;;;;;;;1.67;0.20;;;16.80;61.70;;;;;;5045919;28;20132;-26
2021/12/08 13:33:44;;;;;;;0.10;0.10;;;16.80;61.60;;;;;;5045382;28;20033;-25
2021/12/08 13:36:22;;;;;;;0.20;0.20;;;16.80;61.50;;;;;;5046651;28;20520;-26
2021/12/08 13:38:54;;;;;;;0.00;0.00;;;16.70;61.70;;;;;;5036341;28;20124;-23
2021/12/08 13:41:20;;;;;;;0.13;0.10;;;16.60;61.70;;;;;;5036639;28;20526;-26
2021/12/08 13:43:47;;;;;;;0.50;0.10;;;16.60;61.70;;;;;;5030191;28;20052;-21
2021/12/08 13:46:42;;;;;;;0.20;0.20;;;16.60;61.70;;;;;;5041566;28;20052;-21
2021/12/08 13:49:13;;;;;;;0.85;0.20;;;16.60;61.60;;;;;;5053090;28;20053;-25
2021/12/08 13:51:39;;;;;;;0.30;0.10;;;16.60;61.70;;;;;;5054255;28;20079;-21
2021/12/08 13:54:30;;;;;;;0.10;0.10;;;16.60;61.60;;;;;;5055007;28;20414;-25
2021/12/08 13:56:56;;;;;;;1.05;0.10;;;16.60;61.50;;;;;;5054875;28;20444;-24
2021/12/08 13:59:44;;;;;;;1.33;0.10;;;16.60;61.60;;;;;;5055106;28;20435;-24
2021/12/08 14:02:31;;;;;;;0.13;0.10;;;16.60;61.60;;;;;;5055639;28;20037;-24